Winslow, Arizona
Current Conditions -  °F | °C
As of 12:56 AM on Saturday 20 Dec 2014 (Local Time) from KINW Reporting Station
Haze Haze  
Wind Chill: 22°   Ceiling: 200
Heat Index: 30°   Visibility: 0.75mi
Dew Point: 28°   Wind: 8mph
Humidity: 92%   Direction: 120°ESE
Pressure: 30.23"   Gusts: NA
Location:  35.02°N, 110.69°W
Report Text: KINW 200756Z AUTO 12007KT 3/4SM BR OVC002 M01/M02 A3023 RMK AO2 SLP247 I1000 T10111022
Loading
Personal Weather Stations






























Interactive Weather Map New forecast layout! Learn more

10-Day Weather Forecast

Advertisements
Track Severe Weather on mobile